createdAt,value
2018-12-03T00:00:49.093Z,94.90
2018-12-03T00:01:48.780Z,95.20
2018-12-03T00:02:48.770Z,95.41
2018-12-03T00:03:48.774Z,95.00
2018-12-03T00:04:48.759Z,95.00
2018-12-03T00:05:48.758Z,95.20
2018-12-03T00:06:49.016Z,95.41
2018-12-03T00:07:48.728Z,95.41
2018-12-03T00:08:48.705Z,95.41
2018-12-03T00:09:48.693Z,95.81
2018-12-03T00:10:48.688Z,95.00
2018-12-03T00:11:48.678Z,95.72
2018-12-03T00:12:48.687Z,95.61
2018-12-03T00:13:48.683Z,95.72
2018-12-03T00:14:48.641Z,95.31
2018-12-03T00:15:48.684Z,95.00
2018-12-03T00:16:48.649Z,95.31
2018-12-03T00:17:48.667Z,95.31
2018-12-03T00:18:48.620Z,95.31
2018-12-03T00:19:48.621Z,95.41
2018-12-03T00:20:48.577Z,95.26
2018-12-03T00:21:48.566Z,95.31
2018-12-03T00:22:48.547Z,95.31
2018-12-03T00:23:48.550Z,95.31
2018-12-03T00:24:48.624Z,95.10
2018-12-03T00:25:48.520Z,95.16
2018-12-03T00:26:48.504Z,95.10
2018-12-03T00:27:48.498Z,95.51
2018-12-03T00:28:48.484Z,95.51
2018-12-03T00:29:48.499Z,95.47
2018-12-03T00:30:48.481Z,95.57
2018-12-03T00:31:48.452Z,95.61
2018-12-03T00:32:48.442Z,95.41
2018-12-03T00:33:48.428Z,95.61
2018-12-03T00:34:48.471Z,95.61
2018-12-03T00:35:48.405Z,95.31
2018-12-03T00:36:48.398Z,95.61
2018-12-03T00:37:48.422Z,95.36
2018-12-03T00:38:48.373Z,95.31
2018-12-03T00:39:48.407Z,95.67
2018-12-03T00:40:48.394Z,95.31
2018-12-03T00:41:48.344Z,95.31
2018-12-03T00:42:48.391Z,95.36
2018-12-03T00:43:48.337Z,95.57
2018-12-03T00:44:48.338Z,95.57
2018-12-03T00:45:48.303Z,95.57
2018-12-03T00:46:48.365Z,95.61
2018-12-03T00:47:48.293Z,95.36
2018-12-03T00:48:48.290Z,95.41
2018-12-03T00:49:48.250Z,95.36
2018-12-03T00:50:48.241Z,95.57
2018-12-03T00:51:48.254Z,95.67
2018-12-03T00:52:48.246Z,95.41
2018-12-03T00:53:48.207Z,95.47
2018-12-03T00:54:48.220Z,95.36
2018-12-03T00:55:48.190Z,95.57
2018-12-03T00:56:48.174Z,95.57
2018-12-03T00:57:48.173Z,95.67
2018-12-03T00:58:48.177Z,95.47
2018-12-03T00:59:48.146Z,95.67
2018-12-03T01:00:48.190Z,95.57
2018-12-03T01:01:48.129Z,95.67
2018-12-03T01:02:48.114Z,95.61
2018-12-03T01:03:48.119Z,95.36
2018-12-03T01:04:48.114Z,95.61
2018-12-03T01:05:48.073Z,95.31
2018-12-03T01:06:48.116Z,95.57
2018-12-03T01:07:48.066Z,95.57
2018-12-03T01:08:48.043Z,95.47
2018-12-03T01:09:48.030Z,95.57
2018-12-03T01:10:48.085Z,95.06
2018-12-03T01:11:48.011Z,95.77
2018-12-03T01:12:47.998Z,95.97
2018-12-03T01:13:47.983Z,96.28
2018-12-03T01:14:47.978Z,95.87
2018-12-03T01:15:47.965Z,95.87
2018-12-03T01:16:47.980Z,96.08
2018-12-03T01:17:47.961Z,96.08
2018-12-03T01:18:47.935Z,96.28
2018-12-03T01:19:47.944Z,95.87
2018-12-03T01:20:47.937Z,95.87
2018-12-03T01:21:47.967Z,95.97
2018-12-03T01:22:47.914Z,96.28
2018-12-03T01:23:47.907Z,96.18
2018-12-03T01:24:47.916Z,96.18
2018-12-03T01:25:47.937Z,96.28
2018-12-03T01:26:47.874Z,96.18
2018-12-03T01:27:47.829Z,96.28
2018-12-03T01:28:47.826Z,96.28
2018-12-03T01:29:47.839Z,96.18
2018-12-03T01:30:47.797Z,96.08
2018-12-03T01:31:47.825Z,96.38
2018-12-03T01:32:47.774Z,96.28
2018-12-03T01:33:47.764Z,96.18
2018-12-03T01:34:47.791Z,95.87
2018-12-03T01:35:47.767Z,95.87
2018-12-03T01:36:47.736Z,95.77
2018-12-03T01:37:47.725Z,95.97
2018-12-03T01:38:47.711Z,95.87
2018-12-03T01:39:47.724Z,95.87
2018-12-03T01:40:47.694Z,95.77
2018-12-03T01:41:47.715Z,95.47
2018-12-03T01:42:47.670Z,95.67
2018-12-03T01:43:47.685Z,95.97
2018-12-03T01:44:47.662Z,95.81
2018-12-03T01:45:47.670Z,95.92
2018-12-03T01:46:47.646Z,96.33
2018-12-03T01:47:47.610Z,96.28
2018-12-03T01:48:47.632Z,96.28
2018-12-03T01:49:47.592Z,96.18
2018-12-03T01:50:47.574Z,96.02
2018-12-03T01:51:47.607Z,95.97
2018-12-03T01:52:47.559Z,95.97
2018-12-03T01:53:47.568Z,96.48
2018-12-03T01:54:47.540Z,96.28
2018-12-03T01:55:47.525Z,96.08
2018-12-03T01:56:47.546Z,96.48
2018-12-03T01:57:47.528Z,96.38
2018-12-03T01:58:47.519Z,96.38
2018-12-03T01:59:47.484Z,96.38
2018-12-03T02:00:47.494Z,96.18
2018-12-03T02:01:47.458Z,96.18
2018-12-03T02:02:47.452Z,96.18
2018-12-03T02:03:47.490Z,95.97
2018-12-03T02:04:47.447Z,96.18
2018-12-03T02:05:47.414Z,96.89
2018-12-03T02:06:47.407Z,96.59
2018-12-03T02:07:47.391Z,96.69
2018-12-03T02:08:47.406Z,96.48
2018-12-03T02:09:47.369Z,96.48
2018-12-03T02:10:47.363Z,96.89
2018-12-03T02:11:47.344Z,96.79
2018-12-03T02:12:47.337Z,96.48
2018-12-03T02:13:47.324Z,96.28
2018-12-03T02:14:47.343Z,96.48
2018-12-03T02:15:47.314Z,96.54
2018-12-03T02:16:47.293Z,96.48
2018-12-03T02:17:47.283Z,96.48
2018-12-03T02:18:47.275Z,96.69
2018-12-03T02:19:47.255Z,96.48
2018-12-03T02:20:47.291Z,96.79
2018-12-03T02:21:47.245Z,96.79
2018-12-03T02:22:47.237Z,96.38
2018-12-03T02:23:47.219Z,96.69
2018-12-03T02:24:47.215Z,96.44
2018-12-03T02:25:47.187Z,96.79
2018-12-03T02:26:47.204Z,96.79
2018-12-03T02:27:47.172Z,96.59
2018-12-03T02:28:47.203Z,96.08
2018-12-03T02:29:47.147Z,96.18
2018-12-03T02:30:47.148Z,96.48
2018-12-03T02:31:47.128Z,96.18
2018-12-03T02:32:47.128Z,96.03
2018-12-03T02:33:47.134Z,96.08
2018-12-03T02:34:47.095Z,96.38
2018-12-03T02:35:47.079Z,96.38
2018-12-03T02:36:47.359Z,96.28
2018-12-03T02:37:47.092Z,96.34
2018-12-03T02:38:47.094Z,95.83
2018-12-03T02:39:47.049Z,95.87
2018-12-03T02:40:47.043Z,96.18
2018-12-03T02:41:47.026Z,95.47
2018-12-03T02:42:47.070Z,95.47
2018-12-03T02:43:46.989Z,95.67
2018-12-03T02:44:47.011Z,95.36
2018-12-03T02:45:46.985Z,95.57
2018-12-03T02:46:46.991Z,95.57
2018-12-03T02:47:46.985Z,95.57
2018-12-03T02:48:46.969Z,95.57
2018-12-03T02:49:46.959Z,95.26
2018-12-03T02:50:46.963Z,95.57
2018-12-03T02:51:46.919Z,95.32
2018-12-03T02:52:46.919Z,95.36
2018-12-03T02:53:46.882Z,95.36
2018-12-03T02:54:46.900Z,95.87
2018-12-03T02:55:46.863Z,96.18
2018-12-03T02:56:46.861Z,96.23
2018-12-03T02:57:46.841Z,96.18
2018-12-03T02:58:46.830Z,96.23
2018-12-03T02:59:46.860Z,95.97
2018-12-03T03:00:46.817Z,95.87
2018-12-03T03:01:46.807Z,95.97
2018-12-03T03:02:46.811Z,95.97
2018-12-03T03:03:46.805Z,95.97
2018-12-03T03:04:46.814Z,95.97
2018-12-03T03:05:46.777Z,95.97
2018-12-03T03:06:46.760Z,96.48
2018-12-03T03:07:46.725Z,96.48
2018-12-03T03:08:46.733Z,95.97
2018-12-03T03:09:46.745Z,96.48
2018-12-03T03:10:46.744Z,96.48
2018-12-03T03:11:46.761Z,96.38
2018-12-03T03:12:46.697Z,95.97
2018-12-03T03:13:46.682Z,96.18
2018-12-03T03:14:46.710Z,95.97
2018-12-03T03:15:46.708Z,96.38
2018-12-03T03:16:46.629Z,96.08
2018-12-03T03:17:46.641Z,96.08
2018-12-03T03:18:46.650Z,96.34
2018-12-03T03:19:46.600Z,96.38
2018-12-03T03:20:46.621Z,96.18
2018-12-03T03:21:46.573Z,96.38
2018-12-03T03:22:46.605Z,96.08
2018-12-03T03:23:46.577Z,96.28
2018-12-03T03:24:46.565Z,96.38
2018-12-03T03:25:46.565Z,96.18
2018-12-03T03:26:46.574Z,96.08
2018-12-03T03:27:46.518Z,96.18
2018-12-03T03:28:46.519Z,96.18
2018-12-03T03:29:46.517Z,96.18
2018-12-03T03:30:46.481Z,96.18
2018-12-03T03:31:46.527Z,96.08
2018-12-03T03:32:46.453Z,95.97
2018-12-03T03:33:46.456Z,96.08
2018-12-03T03:34:46.430Z,95.87
2018-12-03T03:35:46.418Z,95.97
2018-12-03T03:36:46.439Z,96.18
2018-12-03T03:37:46.427Z,95.62
2018-12-03T03:38:46.388Z,95.67
2018-12-03T03:39:46.452Z,95.32
2018-12-03T03:40:46.388Z,95.57
2018-12-03T03:41:46.389Z,95.32
2018-12-03T03:42:46.344Z,95.26
2018-12-03T03:43:46.326Z,95.26
2018-12-03T03:44:46.349Z,95.36
2018-12-03T03:45:46.309Z,95.26
2018-12-03T03:46:46.330Z,95.57
2018-12-03T03:47:46.571Z,95.57
2018-12-03T03:48:46.305Z,95.06
2018-12-03T03:49:46.262Z,94.85
2018-12-03T03:50:46.284Z,95.36
2018-12-03T03:51:46.275Z,95.06
2018-12-03T03:52:46.259Z,94.45
2018-12-03T03:53:46.264Z,94.85
2018-12-03T03:54:46.215Z,94.71
2018-12-03T03:55:46.282Z,94.50
2018-12-03T03:56:46.187Z,94.65
2018-12-03T03:57:46.185Z,94.95
2018-12-03T03:58:46.191Z,94.50
2018-12-03T03:59:46.154Z,94.95
2018-12-03T04:00:46.148Z,94.75
2018-12-03T04:01:46.145Z,94.65
2018-12-03T04:02:46.147Z,94.65
2018-12-03T04:03:46.140Z,94.75
2018-12-03T04:04:46.103Z,94.65
2018-12-03T04:05:46.088Z,94.85
2018-12-03T04:06:46.084Z,94.65
2018-12-03T04:07:46.082Z,94.75
2018-12-03T04:08:46.128Z,94.95
2018-12-03T04:11:14.068Z,94.85
2018-12-03T04:12:00.694Z,94.75
2018-12-03T04:13:00.654Z,94.85
2018-12-03T04:14:00.664Z,94.85
2018-12-03T04:15:00.624Z,94.95
2018-12-03T04:16:00.617Z,94.75
2018-12-03T04:17:00.608Z,94.95
2018-12-03T04:18:00.594Z,94.55
2018-12-03T04:19:00.631Z,94.75
2018-12-03T04:20:00.606Z,94.65
2018-12-03T04:21:00.564Z,94.40
2018-12-03T04:22:00.552Z,94.45
2018-12-03T04:23:00.564Z,93.84
2018-12-03T04:24:00.558Z,93.52
2018-12-03T04:25:00.570Z,93.22
2018-12-03T04:26:00.512Z,92.91
2018-12-03T04:27:00.549Z,92.81
2018-12-03T04:28:00.486Z,92.81
2018-12-03T04:29:00.515Z,92.81
2018-12-03T04:30:00.463Z,92.61
2018-12-03T04:31:00.477Z,92.91
2018-12-03T04:32:00.440Z,92.81
2018-12-03T04:33:00.440Z,92.41
2018-12-03T04:34:00.458Z,92.20
2018-12-03T04:35:00.440Z,92.30
2018-12-03T04:36:00.397Z,92.30
2018-12-03T04:37:00.384Z,92.30
2018-12-03T04:38:00.375Z,92.41
2018-12-03T04:39:00.366Z,92.50
2018-12-03T04:40:00.354Z,92.20
2018-12-03T04:41:00.389Z,92.71
2018-12-03T04:42:00.333Z,92.91
2018-12-03T04:43:00.324Z,92.20
2018-12-03T04:44:00.336Z,92.30
2018-12-03T04:45:00.370Z,92.91
2018-12-03T04:46:00.289Z,92.91
2018-12-03T04:47:00.306Z,93.02
2018-12-03T04:48:00.287Z,93.02
2018-12-03T04:49:00.611Z,93.06
2018-12-03T04:50:00.286Z,92.61
2018-12-03T04:51:00.261Z,92.81
2018-12-03T04:52:00.220Z,93.02
2018-12-03T04:53:00.213Z,92.45
2018-12-03T04:54:00.206Z,92.65
2018-12-03T04:55:00.189Z,92.61
2018-12-03T04:56:00.202Z,92.71
2018-12-03T04:57:00.195Z,92.50
2018-12-03T04:58:00.159Z,92.61
2018-12-03T04:59:00.146Z,93.12
2018-12-03T05:00:00.139Z,93.16
2018-12-03T05:01:00.164Z,93.02
2018-12-03T05:02:00.159Z,93.12
2018-12-03T05:03:00.127Z,92.71
2018-12-03T05:04:00.101Z,92.91
2018-12-03T05:05:00.083Z,93.12
2018-12-03T05:06:00.092Z,93.32
2018-12-03T05:07:00.060Z,93.02
2018-12-03T05:08:00.045Z,92.71
2018-12-03T05:09:00.057Z,92.61
2018-12-03T05:10:00.053Z,93.02
2018-12-03T05:11:00.087Z,92.55
2018-12-03T05:12:00.028Z,92.86
2018-12-03T05:13:00.923Z,92.76
2018-12-03T05:14:00.004Z,92.86
2018-12-03T05:14:59.970Z,92.76
2018-12-03T05:15:59.960Z,93.06
2018-12-03T05:16:59.999Z,92.86
2018-12-03T05:17:59.977Z,92.86
2018-12-03T05:18:59.954Z,93.06
2018-12-03T05:19:59.947Z,92.65
2018-12-03T05:20:59.961Z,92.76
2018-12-03T05:21:59.939Z,92.86
2018-12-03T05:22:59.901Z,92.86
2018-12-03T05:24:04.356Z,92.86
2018-12-03T05:24:59.861Z,92.65
2018-12-03T05:25:59.845Z,92.76
2018-12-03T05:27:00.263Z,92.76
2018-12-03T05:27:59.853Z,92.91
2018-12-03T05:28:59.834Z,92.76
2018-12-03T05:29:59.806Z,92.86
2018-12-03T05:30:59.799Z,92.41
2018-12-03T05:31:59.780Z,92.86
2018-12-03T05:32:59.792Z,92.86
2018-12-03T05:33:59.818Z,92.86
2018-12-03T05:34:59.775Z,92.65
2018-12-03T05:35:59.739Z,93.02
2018-12-03T05:36:59.728Z,92.76
2018-12-03T05:37:59.716Z,92.81
2018-12-03T05:38:59.707Z,92.86
2018-12-03T05:40:00.210Z,92.96
2018-12-03T05:40:59.718Z,92.81
2018-12-03T05:41:59.723Z,92.86
2018-12-03T05:42:59.688Z,93.06
2018-12-03T05:43:59.683Z,92.96
2018-12-03T05:44:59.666Z,92.76
2018-12-03T05:45:59.639Z,92.96
2018-12-03T05:46:59.634Z,92.86
2018-12-03T05:47:59.633Z,92.86
2018-12-03T05:48:59.595Z,93.37
2018-12-03T05:49:59.638Z,92.86
2018-12-03T05:50:59.623Z,92.86
2018-12-03T05:51:59.594Z,92.96
2018-12-03T05:52:59.593Z,93.16
2018-12-03T05:53:59.560Z,93.02
2018-12-03T05:54:59.562Z,92.71
2018-12-03T05:55:59.563Z,92.76
2018-12-03T05:56:59.593Z,92.76
2018-12-03T05:57:59.512Z,92.96
2018-12-03T05:58:59.525Z,93.02
2018-12-03T05:59:59.532Z,92.35
2018-12-03T06:00:59.484Z,92.61
2018-12-03T06:01:59.472Z,92.24
2018-12-03T06:02:59.438Z,93.22
2018-12-03T06:03:59.455Z,92.30
2018-12-03T06:04:59.438Z,92.04
2018-12-03T06:05:59.433Z,92.50
2018-12-03T06:06:59.400Z,92.00
2018-12-03T06:07:59.427Z,91.89
2018-12-03T06:08:59.388Z,92.96
2018-12-03T06:09:59.361Z,92.81
2018-12-03T06:10:59.402Z,92.81
2018-12-03T06:11:59.378Z,92.71
2018-12-03T06:12:59.355Z,93.02
2018-12-03T06:13:59.349Z,92.96
2018-12-03T06:14:59.380Z,92.65
2018-12-03T06:15:59.330Z,92.35
2018-12-03T06:16:59.290Z,92.24
2018-12-03T06:17:59.269Z,92.24
2018-12-03T06:18:59.287Z,91.43
2018-12-03T06:19:59.248Z,91.12
2018-12-03T06:20:59.239Z,91.33
2018-12-03T06:21:59.254Z,90.10
2018-12-03T06:22:59.246Z,90.20
2018-12-03T06:23:59.251Z,90.71
2018-12-03T06:24:59.192Z,90.10
2018-12-03T06:25:59.253Z,89.79
2018-12-03T06:26:59.176Z,90.00
2018-12-03T06:27:59.192Z,90.20
2018-12-03T06:28:59.151Z,90.04
2018-12-03T06:29:59.281Z,90.14
2018-12-03T06:30:59.140Z,90.41
2018-12-03T06:31:59.120Z,89.73
2018-12-03T06:32:59.145Z,90.45
2018-12-03T06:33:59.098Z,90.14
2018-12-03T06:34:59.122Z,90.04
2018-12-03T06:35:59.071Z,90.35
2018-12-03T06:36:59.108Z,89.94
2018-12-03T06:37:59.099Z,90.35
2018-12-03T06:38:59.080Z,89.63
2018-12-03T06:39:59.026Z,90.45
2018-12-03T06:40:59.045Z,90.04
2018-12-03T06:41:59.020Z,89.73
2018-12-03T06:42:58.999Z,89.94
2018-12-03T06:43:59.036Z,90.25
2018-12-03T06:44:59.002Z,89.94
2018-12-03T06:45:58.971Z,90.04
2018-12-03T06:46:58.971Z,90.08
2018-12-03T06:47:58.966Z,90.29
2018-12-03T06:48:58.967Z,90.59
2018-12-03T06:49:58.920Z,90.29
2018-12-03T06:50:58.960Z,90.25
2018-12-03T06:51:58.921Z,90.66
2018-12-03T06:52:58.914Z,90.66
2018-12-03T06:53:58.903Z,90.59
2018-12-03T06:54:58.864Z,90.59
2018-12-03T06:55:58.907Z,90.86
2018-12-03T06:56:58.860Z,90.96
2018-12-03T06:57:58.854Z,90.59
2018-12-03T06:58:58.831Z,91.57
2018-12-03T06:59:58.841Z,91.47
2018-12-03T07:00:58.832Z,91.57
2018-12-03T07:01:58.851Z,91.37
2018-12-03T07:02:58.817Z,91.37
2018-12-03T07:03:58.785Z,91.57
2018-12-03T07:04:58.756Z,91.37
2018-12-03T07:05:58.763Z,91.47
2018-12-03T07:06:58.792Z,91.06
2018-12-03T07:07:58.747Z,91.16
2018-12-03T07:08:58.707Z,91.88
2018-12-03T07:09:58.728Z,91.78
2018-12-03T07:10:58.761Z,91.57
2018-12-03T07:11:58.703Z,91.78
2018-12-03T07:12:58.668Z,91.57
2018-12-03T07:13:58.661Z,91.27
2018-12-03T07:14:58.640Z,91.47
2018-12-03T07:15:58.659Z,91.67
2018-12-03T07:16:58.627Z,91.06
2018-12-03T07:17:58.612Z,91.16
2018-12-03T07:18:58.607Z,91.88
2018-12-03T07:19:58.600Z,91.78
2018-12-03T07:20:58.762Z,91.47
2018-12-03T07:21:58.565Z,91.47
2018-12-03T07:22:58.583Z,90.86
2018-12-03T07:23:58.575Z,90.86
2018-12-03T07:24:58.557Z,91.47
2018-12-03T07:25:58.763Z,91.37
2018-12-03T07:26:58.518Z,91.16
2018-12-03T07:27:58.524Z,91.37
2018-12-03T07:28:58.529Z,91.47
2018-12-03T07:29:58.507Z,91.88
2018-12-03T07:30:58.493Z,91.27
2018-12-03T07:31:58.515Z,91.16
2018-12-03T07:32:58.449Z,91.16
2018-12-03T07:34:03.260Z,90.66
2018-12-03T07:34:59.446Z,90.45
2018-12-03T07:35:58.413Z,91.37
2018-12-03T07:36:58.439Z,90.25
2018-12-03T07:37:58.388Z,90.25
2018-12-03T07:38:58.381Z,90.14
2018-12-03T07:39:58.392Z,90.35
2018-12-03T07:40:58.365Z,90.35
2018-12-03T07:41:58.362Z,90.25
2018-12-03T07:42:58.368Z,90.55
2018-12-03T07:43:58.369Z,90.55
2018-12-03T07:44:58.327Z,90.45
2018-12-03T07:45:58.336Z,90.75
2018-12-03T07:46:58.299Z,90.66
2018-12-03T07:47:58.286Z,89.53
2018-12-03T07:48:58.269Z,89.32
2018-12-03T07:49:58.260Z,89.53
2018-12-03T07:50:58.274Z,89.53
2018-12-03T07:51:58.279Z,89.32
2018-12-03T07:52:58.227Z,89.32
2018-12-03T07:53:58.243Z,89.23
2018-12-03T07:54:58.227Z,89.32
2018-12-03T07:55:58.211Z,89.02
2018-12-03T07:56:58.209Z,89.23
2018-12-03T07:57:58.223Z,89.02
2018-12-03T07:58:58.171Z,89.12
2018-12-03T07:59:58.158Z,89.23
2018-12-03T08:00:58.141Z,89.12
2018-12-03T08:01:58.127Z,88.92
2018-12-03T08:02:58.130Z,89.23
2018-12-03T08:03:58.132Z,89.12
2018-12-03T08:04:58.101Z,88.82
2018-12-03T08:05:58.082Z,89.32
2018-12-03T08:06:58.077Z,89.12
2018-12-03T08:07:58.061Z,89.23
2018-12-03T08:08:58.082Z,89.26
2018-12-03T08:09:58.041Z,89.02
2018-12-03T08:10:58.094Z,89.43
2018-12-03T08:11:58.014Z,89.12
2018-12-03T08:12:58.024Z,89.43
2018-12-03T08:13:57.991Z,89.12
2018-12-03T08:14:57.991Z,89.73
2018-12-03T08:15:57.978Z,89.43
2018-12-03T08:16:57.995Z,89.63
2018-12-03T08:17:57.952Z,89.94
2018-12-03T08:18:57.964Z,90.14
2018-12-03T08:19:57.953Z,89.84
2018-12-03T08:20:57.920Z,90.04
2018-12-03T08:21:57.911Z,90.04
2018-12-03T08:22:57.893Z,90.25
2018-12-03T08:23:57.889Z,90.35
2018-12-03T08:24:57.931Z,89.84
2018-12-03T08:25:57.869Z,89.94
2018-12-03T08:26:57.866Z,89.84
2018-12-03T08:27:57.867Z,89.23
2018-12-03T08:28:57.826Z,89.32
2018-12-03T08:29:57.881Z,89.08
2018-12-03T08:30:57.814Z,89.43
2018-12-03T08:31:57.799Z,89.23
2018-12-03T08:32:57.810Z,88.98
2018-12-03T08:33:57.816Z,88.47
2018-12-03T08:34:57.769Z,88.88
2018-12-03T08:35:57.786Z,88.57
2018-12-03T08:36:57.744Z,87.35
2018-12-03T08:38:03.225Z,87.24
2018-12-03T08:38:58.717Z,86.63
2018-12-03T08:39:57.709Z,87.55
2018-12-03T08:40:57.695Z,87.45
2018-12-03T08:41:57.719Z,86.22
2018-12-03T08:42:57.676Z,86.63
2018-12-03T08:43:57.705Z,86.53
2018-12-03T08:44:57.716Z,86.73
2018-12-03T08:45:57.688Z,86.73
2018-12-03T08:46:57.651Z,86.63
2018-12-03T08:47:57.696Z,86.53
2018-12-03T08:48:57.606Z,86.94
2018-12-03T08:49:57.619Z,85.92
2018-12-03T08:50:57.634Z,86.33
2018-12-03T08:51:57.655Z,87.04
2018-12-03T08:52:57.587Z,86.63
2018-12-03T08:53:57.557Z,86.12
2018-12-03T08:54:57.569Z,86.22
2018-12-03T08:55:57.561Z,86.33
2018-12-03T08:56:57.554Z,86.22
2018-12-03T08:57:57.515Z,86.12
2018-12-03T08:58:57.506Z,85.92
2018-12-03T08:59:57.493Z,85.92
2018-12-03T09:00:57.517Z,85.92
2018-12-03T09:01:57.516Z,85.47
2018-12-03T09:02:57.461Z,85.88
2018-12-03T09:03:57.452Z,85.88
2018-12-03T09:04:57.435Z,85.68
2018-12-03T09:05:57.473Z,85.88
2018-12-03T09:06:57.421Z,85.98
2018-12-03T09:07:57.408Z,86.18
2018-12-03T09:08:57.393Z,85.88
2018-12-03T09:09:57.401Z,85.77
2018-12-03T09:10:57.422Z,86.18
2018-12-03T09:11:57.364Z,85.68
2018-12-03T09:12:57.347Z,85.68
2018-12-03T09:13:57.379Z,85.88
2018-12-03T09:14:57.356Z,85.37
2018-12-03T09:15:57.337Z,85.06
2018-12-03T09:17:02.303Z,85.47
2018-12-03T09:17:58.295Z,84.86
2018-12-03T09:18:57.279Z,85.06
2018-12-03T09:19:57.280Z,84.34
2018-12-03T09:20:57.266Z,84.66
2018-12-03T09:21:57.247Z,85.06
2018-12-03T09:22:57.535Z,85.27
2018-12-03T09:23:57.223Z,85.22
2018-12-03T09:24:57.217Z,85.06
2018-12-03T09:25:57.202Z,85.27
2018-12-03T09:26:57.190Z,84.66
2018-12-03T09:27:57.181Z,84.55
2018-12-03T09:28:57.212Z,84.55
2018-12-03T09:29:57.162Z,84.86
2018-12-03T09:30:57.922Z,85.06
2018-12-03T09:31:57.146Z,85.06
2018-12-03T09:32:57.126Z,85.37
2018-12-03T09:33:57.113Z,84.96
2018-12-03T09:34:57.131Z,84.86
2018-12-03T09:35:57.099Z,84.45
2018-12-03T09:36:57.084Z,84.55
2018-12-03T09:37:57.068Z,84.55
2018-12-03T09:38:57.083Z,85.06
2018-12-03T09:39:57.094Z,84.86
2018-12-03T09:40:57.037Z,84.75
2018-12-03T09:41:57.056Z,84.55
2018-12-03T09:42:57.045Z,84.55
2018-12-03T09:43:57.046Z,84.55
2018-12-03T09:44:56.995Z,84.55
2018-12-03T09:45:56.984Z,84.75
2018-12-03T09:46:56.970Z,84.45
2018-12-03T09:47:56.968Z,84.34
2018-12-03T09:48:56.945Z,84.45
2018-12-03T09:49:56.960Z,84.75
2018-12-03T09:50:56.922Z,84.14
2018-12-03T09:51:56.994Z,84.86
2018-12-03T09:52:56.908Z,84.75
2018-12-03T09:53:56.891Z,84.34
2018-12-03T09:54:56.881Z,84.04
2018-12-03T09:55:56.885Z,83.63
2018-12-03T09:56:56.903Z,83.84
2018-12-03T09:57:56.858Z,83.33
2018-12-03T09:58:56.865Z,84.25
2018-12-03T09:59:56.826Z,83.84
2018-12-03T10:00:56.820Z,83.02
2018-12-03T10:01:56.836Z,82.82
2018-12-03T10:02:56.794Z,83.23
2018-12-03T10:03:56.787Z,82.92
2018-12-03T10:04:56.771Z,82.92
2018-12-03T10:05:56.758Z,82.41
2018-12-03T10:06:56.746Z,82.41
2018-12-03T10:07:56.766Z,82.57
2018-12-03T10:08:56.727Z,82.37
2018-12-03T10:09:56.714Z,82.31
2018-12-03T10:10:56.715Z,82.37
2018-12-03T10:11:56.696Z,82.78
2018-12-03T10:12:56.705Z,82.57
2018-12-03T10:13:56.673Z,82.47
2018-12-03T10:14:56.665Z,82.17
2018-12-03T10:15:56.652Z,81.25
2018-12-03T10:16:56.657Z,81.15
2018-12-03T10:17:56.650Z,81.56
2018-12-03T10:19:00.329Z,82.27
2018-12-03T10:19:56.607Z,81.41
2018-12-03T10:20:56.611Z,81.82
2018-12-03T10:21:56.603Z,81.56
2018-12-03T10:22:56.617Z,81.31
2018-12-03T10:23:56.561Z,81.45
2018-12-03T10:24:56.586Z,81.21
2018-12-03T10:25:56.550Z,81.52
2018-12-03T10:26:56.529Z,81.35
2018-12-03T10:27:56.523Z,80.80
2018-12-03T10:28:56.547Z,81.31
2018-12-03T10:29:56.546Z,80.91
2018-12-03T10:30:56.490Z,81.35
2018-12-03T10:31:56.474Z,81.41
2018-12-03T10:32:56.462Z,81.35
2018-12-03T10:33:56.478Z,81.41
2018-12-03T10:34:56.706Z,81.82
2018-12-03T10:35:56.432Z,81.72
2018-12-03T10:36:56.458Z,80.91
2018-12-03T10:37:56.448Z,81.11
2018-12-03T10:38:56.459Z,80.91
2018-12-03T10:39:56.387Z,81.52
2018-12-03T10:40:56.396Z,81.62
2018-12-03T10:41:56.363Z,81.21
2018-12-03T10:42:56.358Z,81.41
2018-12-03T10:43:56.346Z,81.52
2018-12-03T10:44:56.379Z,81.52
2018-12-03T10:45:56.326Z,81.11
2018-12-03T10:46:56.309Z,81.17
2018-12-03T10:47:56.308Z,80.87
2018-12-03T10:48:56.297Z,80.46
2018-12-03T10:49:56.552Z,80.60
2018-12-03T10:50:56.272Z,80.19
2018-12-03T10:51:56.259Z,80.56
2018-12-03T10:52:56.266Z,80.70
2018-12-03T10:53:56.278Z,79.79
2018-12-03T10:54:56.264Z,81.11
2018-12-03T10:55:56.232Z,81.01
2018-12-03T10:56:56.207Z,80.87
2018-12-03T10:57:56.211Z,81.17
2018-12-03T10:58:56.180Z,80.91
2018-12-03T10:59:56.168Z,80.87
2018-12-03T11:00:56.161Z,80.91
2018-12-03T11:01:56.151Z,80.46
2018-12-03T11:02:56.163Z,80.60
2018-12-03T11:03:56.122Z,80.56
2018-12-03T11:04:56.116Z,80.77
2018-12-03T11:05:56.099Z,80.80
2018-12-03T11:06:56.090Z,80.19
2018-12-03T11:07:56.090Z,80.46
2018-12-03T11:08:56.123Z,80.50
2018-12-03T11:09:56.127Z,79.79
2018-12-03T11:10:56.056Z,80.05
2018-12-03T11:11:56.055Z,80.05
2018-12-03T11:12:56.020Z,79.64
2018-12-03T11:13:56.017Z,79.68
2018-12-03T11:14:56.043Z,80.19
2018-12-03T11:15:56.018Z,79.64
2018-12-03T11:16:56.004Z,79.64
2018-12-03T11:17:55.993Z,80.56
2018-12-03T11:18:55.965Z,79.95
2018-12-03T11:19:55.951Z,79.75
2018-12-03T11:20:55.937Z,80.50
2018-12-03T11:21:55.928Z,79.85
2018-12-03T11:22:55.960Z,79.85
2018-12-03T11:23:55.905Z,80.16
2018-12-03T11:24:55.900Z,79.38
2018-12-03T11:25:55.893Z,80.05
2018-12-03T11:26:55.876Z,79.79
2018-12-03T11:27:55.866Z,79.95
2018-12-03T11:28:55.913Z,79.95
2018-12-03T11:29:55.842Z,79.85
2018-12-03T11:30:55.829Z,79.95
2018-12-03T11:31:55.836Z,80.05
2018-12-03T11:32:55.809Z,80.16
2018-12-03T11:33:55.817Z,80.66
2018-12-03T11:34:55.789Z,79.75
2018-12-03T11:35:55.776Z,79.95
2018-12-03T11:36:55.829Z,79.95
2018-12-03T11:37:56.821Z,79.95
2018-12-03T11:38:55.753Z,79.64
2018-12-03T11:39:55.739Z,79.34
2018-12-03T11:40:55.719Z,79.54
2018-12-03T11:41:55.761Z,80.05
2018-12-03T11:42:55.705Z,79.85
2018-12-03T11:43:55.685Z,79.34
2018-12-03T11:44:55.691Z,80.05
2018-12-03T11:45:55.667Z,79.54
2018-12-03T11:46:55.674Z,79.85
2018-12-03T11:47:55.704Z,79.95
2018-12-03T11:48:55.641Z,79.14
2018-12-03T11:49:55.623Z,78.63
2018-12-03T11:50:55.625Z,78.63
2018-12-03T11:51:55.637Z,79.14
2018-12-03T11:52:55.622Z,79.14
2018-12-03T11:53:55.633Z,78.83
2018-12-03T11:54:55.590Z,78.53
2018-12-03T11:55:55.563Z,78.83
2018-12-03T11:56:55.547Z,79.24
2018-12-03T11:57:55.553Z,78.22
2018-12-03T11:58:55.557Z,78.42
2018-12-03T11:59:55.528Z,78.53
2018-12-03T12:00:55.510Z,77.91
2018-12-03T12:01:55.494Z,78.02
2018-12-03T12:02:55.498Z,77.30
2018-12-03T12:03:55.475Z,77.78
2018-12-03T12:04:55.482Z,78.02
2018-12-03T12:05:55.450Z,77.67
2018-12-03T12:06:55.464Z,78.19
2018-12-03T12:07:55.488Z,77.98
2018-12-03T12:08:55.417Z,77.87
2018-12-03T12:09:55.449Z,77.06
2018-12-03T12:10:55.426Z,77.06
2018-12-03T12:11:55.416Z,77.37
2018-12-03T12:12:55.378Z,77.17
2018-12-03T12:13:55.389Z,76.86
2018-12-03T12:14:55.357Z,77.37
2018-12-03T12:15:55.376Z,77.78
2018-12-03T12:16:55.345Z,76.96
2018-12-03T12:17:55.338Z,76.86
2018-12-03T12:18:55.406Z,77.57
2018-12-03T12:19:55.318Z,77.26
2018-12-03T12:20:55.294Z,76.76
2018-12-03T12:21:55.285Z,77.06
2018-12-03T12:22:55.298Z,77.47
2018-12-03T12:23:55.262Z,77.26
2018-12-03T12:24:55.282Z,77.06
2018-12-03T12:25:55.238Z,77.37
2018-12-03T12:26:55.238Z,77.47
2018-12-03T12:27:55.231Z,77.26
2018-12-03T12:28:55.230Z,77.26
2018-12-03T12:29:55.223Z,77.37
2018-12-03T12:30:55.193Z,76.86
2018-12-03T12:31:55.193Z,77.47
2018-12-03T12:32:55.162Z,77.57
2018-12-03T12:33:55.152Z,76.76
2018-12-03T12:34:55.143Z,76.65
2018-12-03T12:35:55.169Z,76.82
2018-12-03T12:36:55.122Z,75.74
2018-12-03T12:37:56.846Z,75.74
2018-12-03T12:38:55.106Z,77.17
2018-12-03T12:39:55.087Z,76.96
2018-12-03T12:40:55.075Z,76.69
2018-12-03T12:41:55.138Z,77.17
2018-12-03T12:42:55.057Z,77.06
2018-12-03T12:43:55.046Z,76.96
2018-12-03T12:44:55.054Z,77.26
2018-12-03T12:45:55.034Z,77.20
2018-12-03T12:46:55.019Z,76.76
2018-12-03T12:47:55.047Z,77.26
2018-12-03T12:48:55.003Z,77.26
2018-12-03T12:49:55.008Z,77.47
2018-12-03T12:50:54.998Z,77.37
2018-12-03T12:51:54.964Z,77.20
2018-12-03T12:52:54.963Z,77.61
2018-12-03T12:53:54.938Z,77.20